Time;durP1;ratioP1;P1;durP2;ratioP2;P2;SDS_P1;SDS_P2;PMS_P1;PMS_P2;Temp;Humidity;BMP_temperature;BMP_pressure;BME280_temperature;BME280_humidity;BME280_pressure;Samples;Min_cycle;Max_cycle;Signal;HPM_P1;HPM_P2
2023/12/16 00:02:02;;;;;;;23.60;13.50;;;;;;;;;;5031073;28;20433;-83
2023/12/16 00:04:28;;;;;;;19.13;12.00;;;;;;;;;;5031148;28;20045;-82
2023/12/16 00:06:53;;;;;;;21.90;12.33;;;;;;;;;;5029527;28;20033;-82
2023/12/16 00:09:18;;;;;;;24.67;12.07;;;;;;;;;;5029312;28;20278;-84
2023/12/16 00:11:43;;;;;;;19.93;12.40;;;;;;;;;;5014194;28;20339;-84
2023/12/16 00:14:09;;;;;;;22.93;13.70;;;;;;;;;;5032003;28;20270;-85
2023/12/16 00:16:34;;;;;;;23.95;13.13;;;;;;;;;;5009083;28;20263;-82
2023/12/16 00:18:59;;;;;;;26.45;13.73;;;;;;;;;;5029948;28;20025;-82
2023/12/16 00:21:25;;;;;;;25.37;13.50;;;;;;;;;;5020630;28;20044;-82
2023/12/16 00:23:50;;;;;;;24.13;13.23;;;;;;;;;;5036760;28;20304;-82
2023/12/16 00:26:15;;;;;;;25.90;13.10;;;;;;;;;;5026325;28;20306;-83
2023/12/16 00:28:40;;;;;;;27.55;14.07;;;;;;;;;;5027566;28;20286;-82
2023/12/16 00:31:06;;;;;;;34.70;17.88;;;;;;;;;;5030462;28;20092;-82
2023/12/16 00:33:31;;;;;;;28.52;14.60;;;;;;;;;;5030385;28;20043;-82
2023/12/16 00:35:56;;;;;;;28.27;14.50;;;;;;;;;;5032258;28;20018;-82
2023/12/16 00:38:21;;;;;;;26.70;13.63;;;;;;;;;;5029189;28;20401;-82
2023/12/16 00:40:47;;;;;;;27.73;13.97;;;;;;;;;;5031800;28;20425;-82
2023/12/16 00:43:12;;;;;;;26.27;13.63;;;;;;;;;;5030019;28;20349;-83
2023/12/16 00:45:37;;;;;;;22.40;12.47;;;;;;;;;;5033285;28;20488;-82
2023/12/16 00:48:02;;;;;;;21.15;12.07;;;;;;;;;;5038433;28;20699;-82
2023/12/16 00:50:28;;;;;;;21.77;12.68;;;;;;;;;;5031779;28;20018;-82
2023/12/16 00:52:53;;;;;;;17.38;11.77;;;;;;;;;;5034912;28;20035;-82
2023/12/16 00:55:18;;;;;;;20.98;11.77;;;;;;;;;;5032833;28;20041;-82
2023/12/16 00:57:43;;;;;;;26.60;14.18;;;;;;;;;;5029878;28;20018;-82
2023/12/16 01:00:09;;;;;;;25.75;14.55;;;;;;;;;;5029893;28;20049;-82
2023/12/16 01:02:34;;;;;;;21.95;13.35;;;;;;;;;;5030436;28;20036;-82
2023/12/16 01:05:00;;;;;;;30.23;14.67;;;;;;;;;;5037667;28;20040;-82
2023/12/16 01:07:25;;;;;;;31.50;15.00;;;;;;;;;;5031351;28;20278;-82
2023/12/16 01:09:51;;;;;;;27.10;15.47;;;;;;;;;;5030226;28;20277;-82
2023/12/16 01:12:16;;;;;;;26.75;14.60;;;;;;;;;;5030936;28;20270;-82
2023/12/16 01:14:42;;;;;;;26.65;15.18;;;;;;;;;;5030328;28;20074;-82
2023/12/16 01:17:07;;;;;;;28.88;15.45;;;;;;;;;;5035115;28;20013;-82
2023/12/16 01:19:32;;;;;;;28.63;14.83;;;;;;;;;;5033008;28;20032;-82
2023/12/16 01:21:57;;;;;;;25.50;14.82;;;;;;;;;;5029261;28;20773;-83
2023/12/16 01:24:23;;;;;;;28.77;14.95;;;;;;;;;;5028687;28;20091;-83
2023/12/16 01:26:48;;;;;;;26.38;14.32;;;;;;;;;;5039830;28;20021;-83
2023/12/16 01:29:14;;;;;;;24.57;13.53;;;;;;;;;;5050274;28;20111;-82
2023/12/16 01:31:39;;;;;;;23.80;13.60;;;;;;;;;;5048430;28;20265;-82
2023/12/16 01:34:04;;;;;;;25.27;12.67;;;;;;;;;;5038612;28;20032;-82
2023/12/16 01:36:29;;;;;;;25.17;13.70;;;;;;;;;;5040936;28;20371;-82
2023/12/16 01:38:55;;;;;;;26.73;14.73;;;;;;;;;;5033367;28;20401;-82
2023/12/16 01:41:20;;;;;;;25.90;15.20;;;;;;;;;;5038533;28;20290;-83
2023/12/16 01:43:45;;;;;;;34.20;15.38;;;;;;;;;;5043333;28;20131;-83
2023/12/16 01:46:11;;;;;;;29.77;15.57;;;;;;;;;;5035797;28;20384;-83
2023/12/16 01:48:36;;;;;;;29.77;14.48;;;;;;;;;;5038333;28;20075;-83
2023/12/16 01:51:02;;;;;;;26.98;14.88;;;;;;;;;;5039819;28;20081;-83
2023/12/16 01:53:27;;;;;;;27.77;15.05;;;;;;;;;;5035210;28;20033;-83
2023/12/16 01:55:53;;;;;;;27.13;14.43;;;;;;;;;;5036986;28;20021;-83
2023/12/16 01:58:18;;;;;;;25.10;13.93;;;;;;;;;;5036193;28;20025;-82
2023/12/16 02:00:45;;;;;;;30.67;15.23;;;;;;;;;;5035851;28;20064;-83
2023/12/16 02:03:11;;;;;;;25.23;12.57;;;;;;;;;;5029650;28;20049;-82
2023/12/16 02:05:36;;;;;;;26.25;15.32;;;;;;;;;;5033730;28;20087;-82
2023/12/16 02:08:01;;;;;;;21.13;12.60;;;;;;;;;;5018821;28;20025;-82
2023/12/16 02:10:26;;;;;;;22.83;12.50;;;;;;;;;;5039102;28;20347;-83
2023/12/16 02:12:52;;;;;;;25.40;13.40;;;;;;;;;;5038496;28;20275;-82
2023/12/16 02:15:17;;;;;;;23.85;12.63;;;;;;;;;;5047715;28;20364;-82
2023/12/16 02:17:42;;;;;;;19.80;11.70;;;;;;;;;;5039805;28;20025;-82
2023/12/16 02:20:08;;;;;;;22.47;11.33;;;;;;;;;;5040384;28;20600;-83
2023/12/16 02:22:33;;;;;;;22.85;11.20;;;;;;;;;;5044875;28;20764;-83
2023/12/16 02:24:59;;;;;;;24.13;13.13;;;;;;;;;;5037415;28;20029;-83
2023/12/16 02:27:24;;;;;;;26.42;14.32;;;;;;;;;;5037296;28;20274;-83
2023/12/16 02:29:49;;;;;;;29.20;14.93;;;;;;;;;;5039054;28;20064;-83
2023/12/16 02:32:15;;;;;;;25.97;14.53;;;;;;;;;;5045009;28;20396;-82
2023/12/16 02:34:40;;;;;;;26.02;14.48;;;;;;;;;;5040689;28;20627;-82
2023/12/16 02:37:08;;;;;;;25.43;14.27;;;;;;;;;;5040401;28;20022;-82
2023/12/16 02:39:34;;;;;;;28.48;14.88;;;;;;;;;;5036063;28;20274;-82
2023/12/16 02:41:59;;;;;;;22.05;12.57;;;;;;;;;;5050050;28;20013;-83
2023/12/16 02:44:24;;;;;;;24.25;13.50;;;;;;;;;;5044112;28;20068;-83
2023/12/16 02:46:49;;;;;;;28.73;13.03;;;;;;;;;;5043884;28;20021;-82
2023/12/16 02:49:15;;;;;;;25.67;13.87;;;;;;;;;;5043284;28;20254;-82
2023/12/16 02:51:40;;;;;;;19.55;12.10;;;;;;;;;;5040924;28;20265;-83
2023/12/16 02:54:05;;;;;;;27.50;14.00;;;;;;;;;;5035133;28;20096;-83
2023/12/16 02:56:31;;;;;;;27.95;13.18;;;;;;;;;;5036277;28;20429;-83
2023/12/16 02:58:56;;;;;;;24.03;13.17;;;;;;;;;;5035080;28;20079;-83
2023/12/16 03:01:21;;;;;;;24.23;13.57;;;;;;;;;;5038430;28;20270;-83
2023/12/16 03:03:46;;;;;;;27.07;12.90;;;;;;;;;;5032471;28;20294;-83
2023/12/16 03:06:11;;;;;;;25.47;13.87;;;;;;;;;;5028692;28;20286;-82
2023/12/16 03:08:37;;;;;;;24.37;13.37;;;;;;;;;;5035358;28;20270;-82
2023/12/16 03:11:03;;;;;;;23.50;12.32;;;;;;;;;;5035258;28;20352;-82
2023/12/16 03:13:29;;;;;;;21.13;10.65;;;;;;;;;;5035441;28;20079;-82
2023/12/16 03:15:54;;;;;;;21.55;11.35;;;;;;;;;;5036236;28;20487;-82
2023/12/16 03:18:19;;;;;;;23.25;12.85;;;;;;;;;;5033123;28;20040;-82
2023/12/16 03:20:45;;;;;;;22.20;12.93;;;;;;;;;;5033593;28;20025;-82
2023/12/16 03:23:10;;;;;;;23.17;12.93;;;;;;;;;;5032956;28;20022;-83
2023/12/16 03:25:37;;;;;;;23.67;12.48;;;;;;;;;;5041163;28;20469;-82
2023/12/16 03:28:02;;;;;;;22.75;12.52;;;;;;;;;;5034439;28;20481;-82
2023/12/16 03:30:28;;;;;;;21.70;12.70;;;;;;;;;;5032977;28;20028;-82
2023/12/16 03:32:54;;;;;;;26.58;13.32;;;;;;;;;;5032835;28;20029;-83
2023/12/16 03:35:19;;;;;;;22.88;13.20;;;;;;;;;;5040178;28;20032;-82
2023/12/16 03:37:44;;;;;;;25.70;13.13;;;;;;;;;;5027305;28;20017;-83
2023/12/16 03:40:10;;;;;;;26.75;12.50;;;;;;;;;;5049424;28;20341;-83
2023/12/16 03:42:35;;;;;;;21.13;12.13;;;;;;;;;;5032818;28;20029;-83
2023/12/16 03:45:00;;;;;;;19.70;11.55;;;;;;;;;;5031600;28;20026;-83
2023/12/16 03:47:26;;;;;;;20.75;10.80;;;;;;;;;;5031986;28;20022;-82
2023/12/16 03:49:51;;;;;;;23.05;12.57;;;;;;;;;;5033108;28;20030;-82
2023/12/16 03:52:17;;;;;;;22.45;12.27;;;;;;;;;;5033228;28;20060;-82
2023/12/16 03:54:42;;;;;;;21.45;12.20;;;;;;;;;;5031855;28;20033;-82
2023/12/16 03:57:07;;;;;;;22.23;11.47;;;;;;;;;;5037971;28;20071;-82
2023/12/16 03:59:32;;;;;;;26.58;11.85;;;;;;;;;;5033134;28;20321;-82
2023/12/16 04:01:57;;;;;;;21.93;12.00;;;;;;;;;;5033796;28;20018;-82
2023/12/16 04:04:23;;;;;;;29.43;13.33;;;;;;;;;;5032431;28;20287;-82
2023/12/16 04:06:48;;;;;;;22.73;12.30;;;;;;;;;;5032901;28;20028;-83
2023/12/16 04:09:13;;;;;;;22.03;12.67;;;;;;;;;;5035395;28;20267;-82
2023/12/16 04:11:45;;;;;;;26.35;12.35;;;;;;;;;;5038203;28;20263;-83
2023/12/16 04:14:10;;;;;;;22.17;12.77;;;;;;;;;;5032850;28;20021;-83
2023/12/16 04:16:37;;;;;;;20.33;11.07;;;;;;;;;;5032332;28;21224;-83
2023/12/16 04:19:02;;;;;;;19.35;10.93;;;;;;;;;;5037316;28;20608;-83
2023/12/16 04:21:27;;;;;;;21.00;11.40;;;;;;;;;;5033190;28;20040;-83
2023/12/16 04:23:52;;;;;;;21.17;11.87;;;;;;;;;;5031263;28;20025;-82
2023/12/16 04:26:18;;;;;;;24.37;12.70;;;;;;;;;;5031846;28;20344;-83
2023/12/16 04:28:43;;;;;;;20.48;11.93;;;;;;;;;;5027853;28;20071;-82
2023/12/16 04:31:12;;;;;;;20.73;11.27;;;;;;;;;;5039408;28;20025;-82
2023/12/16 04:33:37;;;;;;;24.95;12.18;;;;;;;;;;5032650;28;20697;-82
2023/12/16 04:36:03;;;;;;;26.23;12.10;;;;;;;;;;5026570;28;20112;-82
2023/12/16 04:38:28;;;;;;;20.90;11.88;;;;;;;;;;5016190;28;20358;-82
2023/12/16 04:40:53;;;;;;;22.83;11.73;;;;;;;;;;5032815;28;20017;-83
2023/12/16 04:43:19;;;;;;;24.50;12.52;;;;;;;;;;5037327;28;20263;-83
2023/12/16 04:45:45;;;;;;;21.52;11.50;;;;;;;;;;5039489;28;20022;-83
2023/12/16 04:48:11;;;;;;;22.02;12.43;;;;;;;;;;5049640;28;20119;-83
2023/12/16 04:50:36;;;;;;;22.93;11.70;;;;;;;;;;5041284;28;20537;-83
2023/12/16 04:53:01;;;;;;;19.43;11.57;;;;;;;;;;5039474;28;20679;-82
2023/12/16 04:55:26;;;;;;;20.55;12.27;;;;;;;;;;5032052;28;20306;-83
2023/12/16 04:57:51;;;;;;;27.30;14.00;;;;;;;;;;5038693;28;20033;-82
2023/12/16 05:00:17;;;;;;;24.13;13.73;;;;;;;;;;5034310;28;20361;-82
2023/12/16 05:02:42;;;;;;;24.48;12.35;;;;;;;;;;5036700;28;20338;-82
2023/12/16 05:05:07;;;;;;;21.17;12.10;;;;;;;;;;5034871;28;20114;-82
2023/12/16 05:07:33;;;;;;;22.67;11.98;;;;;;;;;;5031178;28;20161;-82
2023/12/16 05:09:58;;;;;;;20.07;12.13;;;;;;;;;;5034325;28;20021;-82
2023/12/16 05:12:23;;;;;;;22.00;11.47;;;;;;;;;;5037750;28;20311;-82
2023/12/16 05:14:48;;;;;;;19.60;11.40;;;;;;;;;;5030189;28;20286;-82
2023/12/16 05:17:13;;;;;;;21.87;11.47;;;;;;;;;;5034437;28;20365;-83
2023/12/16 05:19:39;;;;;;;18.70;11.13;;;;;;;;;;5035415;28;20273;-82
2023/12/16 05:22:04;;;;;;;28.75;12.18;;;;;;;;;;5032750;28;20297;-83
2023/12/16 05:24:29;;;;;;;28.30;12.33;;;;;;;;;;5032212;28;20319;-83
2023/12/16 05:26:54;;;;;;;21.40;11.57;;;;;;;;;;5033204;28;20258;-83
2023/12/16 05:29:19;;;;;;;22.03;12.73;;;;;;;;;;5031932;28;20763;-83
2023/12/16 05:31:45;;;;;;;24.37;13.60;;;;;;;;;;5031688;28;20694;-83
2023/12/16 05:34:10;;;;;;;19.90;12.32;;;;;;;;;;5032438;28;20294;-83
2023/12/16 05:36:36;;;;;;;20.52;11.63;;;;;;;;;;5043344;28;20021;-82
2023/12/16 05:39:01;;;;;;;20.38;11.88;;;;;;;;;;5038217;28;20135;-82
2023/12/16 05:41:26;;;;;;;17.73;10.73;;;;;;;;;;5045173;28;20035;-82
2023/12/16 05:43:51;;;;;;;16.23;10.80;;;;;;;;;;5046230;28;20304;-82
2023/12/16 05:46:17;;;;;;;20.63;10.60;;;;;;;;;;5016655;28;20029;-82
2023/12/16 05:48:42;;;;;;;19.27;10.13;;;;;;;;;;5040324;28;20029;-82
2023/12/16 05:51:07;;;;;;;19.17;10.85;;;;;;;;;;5033462;28;20392;-82
2023/12/16 05:53:34;;;;;;;21.87;10.63;;;;;;;;;;5033846;28;20057;-82
2023/12/16 05:55:59;;;;;;;17.50;10.70;;;;;;;;;;5031152;28;20360;-82
2023/12/16 05:58:25;;;;;;;17.52;10.63;;;;;;;;;;5035578;28;20113;-83
2023/12/16 06:00:50;;;;;;;19.05;12.02;;;;;;;;;;5036801;28;20045;-83
2023/12/16 06:03:15;;;;;;;28.38;13.13;;;;;;;;;;5031443;28;20056;-83
2023/12/16 06:05:40;;;;;;;19.57;10.73;;;;;;;;;;5037594;28;20021;-83
2023/12/16 06:08:05;;;;;;;16.92;9.95;;;;;;;;;;5035478;28;20273;-82
2023/12/16 06:10:31;;;;;;;15.93;8.80;;;;;;;;;;5032560;28;20116;-82
2023/12/16 06:12:56;;;;;;;20.70;10.57;;;;;;;;;;5033838;28;20720;-82
2023/12/16 06:15:21;;;;;;;21.60;10.97;;;;;;;;;;5032489;28;20029;-82
2023/12/16 06:17:46;;;;;;;16.33;9.43;;;;;;;;;;5040918;28;20273;-82
2023/12/16 06:20:12;;;;;;;19.70;11.20;;;;;;;;;;5039994;28;20029;-82
2023/12/16 06:22:37;;;;;;;20.90;10.93;;;;;;;;;;5042122;28;20266;-82
2023/12/16 06:25:02;;;;;;;15.57;9.63;;;;;;;;;;5033317;28;20029;-82
2023/12/16 06:27:27;;;;;;;16.35;8.77;;;;;;;;;;5037373;28;20267;-82
2023/12/16 06:29:53;;;;;;;15.97;8.97;;;;;;;;;;5033437;28;20248;-82
2023/12/16 06:32:18;;;;;;;14.10;9.07;;;;;;;;;;5015610;28;20282;-82
2023/12/16 06:34:43;;;;;;;23.83;9.87;;;;;;;;;;5036482;28;20358;-82
2023/12/16 06:37:08;;;;;;;15.17;9.17;;;;;;;;;;5039659;28;20801;-82
2023/12/16 06:39:33;;;;;;;16.60;8.13;;;;;;;;;;5035342;28;20258;-82
2023/12/16 06:41:59;;;;;;;15.90;8.80;;;;;;;;;;5038350;28;20371;-82
2023/12/16 06:44:24;;;;;;;14.03;8.53;;;;;;;;;;5040867;28;20425;-82
2023/12/16 06:46:49;;;;;;;14.80;7.65;;;;;;;;;;5035057;28;20324;-82
2023/12/16 06:49:15;;;;;;;17.40;8.50;;;;;;;;;;5049254;28;20043;-82
2023/12/16 06:51:40;;;;;;;12.27;8.00;;;;;;;;;;5051830;28;20274;-82
2023/12/16 06:54:05;;;;;;;13.00;7.97;;;;;;;;;;5039711;28;20461;-82
2023/12/16 06:56:30;;;;;;;11.43;6.17;;;;;;;;;;5031273;28;20076;-82
2023/12/16 06:58:56;;;;;;;22.70;8.48;;;;;;;;;;5023429;28;20302;-82
2023/12/16 07:01:25;;;;;;;17.53;7.87;;;;;;;;;;5040002;28;20052;-82
2023/12/16 07:03:50;;;;;;;27.58;8.27;;;;;;;;;;5037211;28;20342;-82
2023/12/16 07:06:18;;;;;;;13.80;7.60;;;;;;;;;;5032467;28;20025;-82
2023/12/16 07:08:44;;;;;;;19.92;7.85;;;;;;;;;;5027130;28;20021;-82
2023/12/16 07:11:10;;;;;;;10.18;7.28;;;;;;;;;;5033756;28;20014;-82
2023/12/16 07:13:36;;;;;;;10.05;7.03;;;;;;;;;;5024977;28;20025;-82
2023/12/16 07:16:02;;;;;;;13.70;7.70;;;;;;;;;;5030913;28;20037;-83
2023/12/16 07:18:27;;;;;;;13.43;7.97;;;;;;;;;;5040462;28;20312;-82
2023/12/16 07:20:53;;;;;;;14.45;8.13;;;;;;;;;;5034448;28;20025;-82
2023/12/16 07:23:18;;;;;;;12.05;7.60;;;;;;;;;;5031884;28;20033;-83
2023/12/16 07:25:43;;;;;;;15.43;7.90;;;;;;;;;;5031840;28;21444;-82
2023/12/16 07:28:08;;;;;;;13.55;7.60;;;;;;;;;;5025973;28;20626;-81
2023/12/16 07:30:34;;;;;;;12.23;7.50;;;;;;;;;;5030005;28;20437;-81
2023/12/16 07:32:59;;;;;;;12.18;7.47;;;;;;;;;;5033466;28;20266;-81
2023/12/16 07:35:24;;;;;;;12.67;7.53;;;;;;;;;;5040463;28;20040;-81
2023/12/16 07:37:49;;;;;;;12.33;8.07;;;;;;;;;;5033944;28;20266;-81
2023/12/16 07:40:15;;;;;;;15.20;8.68;;;;;;;;;;5035568;28;20271;-81
2023/12/16 07:42:40;;;;;;;15.60;8.45;;;;;;;;;;5034303;28;20486;-81
2023/12/16 07:45:06;;;;;;;15.95;7.90;;;;;;;;;;5031957;28;20024;-82
2023/12/16 07:47:34;;;;;;;12.85;8.65;;;;;;;;;;5035355;28;20051;-80
2023/12/16 07:50:00;;;;;;;11.68;8.30;;;;;;;;;;5029651;28;20508;-81
2023/12/16 07:52:26;;;;;;;15.10;8.23;;;;;;;;;;5030833;28;20026;-80
2023/12/16 07:54:51;;;;;;;14.43;9.43;;;;;;;;;;5033211;28;20053;-80
2023/12/16 07:57:16;;;;;;;16.23;9.07;;;;;;;;;;5030087;28;20465;-80
2023/12/16 07:59:42;;;;;;;15.95;8.48;;;;;;;;;;5030238;28;20676;-80
2023/12/16 08:02:08;;;;;;;15.07;9.30;;;;;;;;;;5024908;28;20022;-80
2023/12/16 08:04:34;;;;;;;17.05;9.32;;;;;;;;;;5041767;28;20057;-80
2023/12/16 08:06:59;;;;;;;15.15;8.90;;;;;;;;;;5031176;28;20025;-81
2023/12/16 08:09:24;;;;;;;12.40;8.43;;;;;;;;;;5033013;28;20028;-80
2023/12/16 08:11:50;;;;;;;13.70;9.10;;;;;;;;;;5026036;28;20298;-80
2023/12/16 08:14:15;;;;;;;12.65;8.50;;;;;;;;;;5040790;28;20267;-80
2023/12/16 08:16:40;;;;;;;16.52;8.82;;;;;;;;;;5031201;28;20030;-81
2023/12/16 08:19:06;;;;;;;14.30;8.75;;;;;;;;;;5039646;28;20385;-81
2023/12/16 08:21:31;;;;;;;19.00;10.55;;;;;;;;;;5048175;28;20102;-81
2023/12/16 08:23:56;;;;;;;30.48;14.93;;;;;;;;;;5031334;28;20029;-81
2023/12/16 08:26:21;;;;;;;36.10;17.77;;;;;;;;;;5039199;28;20508;-81
2023/12/16 08:28:47;;;;;;;30.43;16.00;;;;;;;;;;5035577;28;20108;-81
2023/12/16 08:31:12;;;;;;;28.00;15.32;;;;;;;;;;5030892;28;20270;-80
2023/12/16 08:33:37;;;;;;;26.90;14.00;;;;;;;;;;5032906;28;20033;-80
2023/12/16 08:36:03;;;;;;;24.60;13.93;;;;;;;;;;5031526;28;20115;-80
2023/12/16 08:38:32;;;;;;;23.30;13.43;;;;;;;;;;5025326;28;20381;-80
2023/12/16 08:40:57;;;;;;;20.00;12.00;;;;;;;;;;5025313;28;20021;-81
2023/12/16 08:43:23;;;;;;;20.63;12.43;;;;;;;;;;5030240;28;20493;-80
2023/12/16 08:45:48;;;;;;;21.20;12.45;;;;;;;;;;5033432;28;20075;-81
2023/12/16 08:48:13;;;;;;;20.75;11.65;;;;;;;;;;5034134;28;20036;-81
2023/12/16 08:50:39;;;;;;;27.50;12.30;;;;;;;;;;5032309;28;20021;-81
2023/12/16 08:53:07;;;;;;;21.17;11.47;;;;;;;;;;5034727;28;21057;-81
2023/12/16 08:55:32;;;;;;;32.05;15.05;;;;;;;;;;5041357;28;20372;-81
2023/12/16 08:57:58;;;;;;;25.73;14.63;;;;;;;;;;5032847;28;20427;-81
2023/12/16 09:00:23;;;;;;;21.70;12.90;;;;;;;;;;5035382;28;20269;-81
2023/12/16 09:02:48;;;;;;;21.93;13.53;;;;;;;;;;5032591;28;20385;-81
2023/12/16 09:05:16;;;;;;;21.40;12.73;;;;;;;;;;5031116;28;20286;-81
2023/12/16 09:07:41;;;;;;;22.17;12.75;;;;;;;;;;5036255;28;20028;-81
2023/12/16 09:10:06;;;;;;;17.88;11.57;;;;;;;;;;5030848;28;20025;-81
2023/12/16 09:12:32;;;;;;;24.33;13.82;;;;;;;;;;5030713;28;20245;-81
2023/12/16 09:14:57;;;;;;;19.83;11.93;;;;;;;;;;5031740;28;20025;-81
2023/12/16 09:17:22;;;;;;;20.92;13.13;;;;;;;;;;5030138;28;20270;-81
2023/12/16 09:19:47;;;;;;;18.67;12.53;;;;;;;;;;5030446;28;20067;-81
2023/12/16 09:22:13;;;;;;;22.42;12.07;;;;;;;;;;5031476;28;20357;-81
2023/12/16 09:24:39;;;;;;;20.40;11.40;;;;;;;;;;5031715;28;20103;-81
2023/12/16 09:27:05;;;;;;;29.55;13.40;;;;;;;;;;5031393;28;20265;-81
2023/12/16 09:29:30;;;;;;;18.58;12.45;;;;;;;;;;5029704;28;20378;-81
2023/12/16 09:31:56;;;;;;;23.37;14.43;;;;;;;;;;5030180;28;20013;-80
2023/12/16 09:34:21;;;;;;;20.43;11.97;;;;;;;;;;5030163;28;20277;-80
2023/12/16 09:36:47;;;;;;;20.67;13.45;;;;;;;;;;5029152;28;20294;-81
2023/12/16 09:39:12;;;;;;;20.73;12.15;;;;;;;;;;5029864;28;20029;-81
2023/12/16 09:41:42;;;;;;;18.17;10.63;;;;;;;;;;5032581;28;20504;-80
2023/12/16 09:44:08;;;;;;;18.73;10.10;;;;;;;;;;5029801;28;20305;-80
2023/12/16 09:46:34;;;;;;;17.23;10.00;;;;;;;;;;5031196;28;20060;-81
2023/12/16 09:48:59;;;;;;;27.50;11.93;;;;;;;;;;5029935;28;20116;-80
2023/12/16 09:51:25;;;;;;;23.20;11.48;;;;;;;;;;5030383;28;20064;-80
2023/12/16 09:53:54;;;;;;;19.70;10.32;;;;;;;;;;5029960;28;20026;-81
2023/12/16 09:56:20;;;;;;;19.00;10.10;;;;;;;;;;5030649;28;20044;-80
2023/12/16 09:58:46;;;;;;;17.17;10.07;;;;;;;;;;5051885;28;20025;-80
2023/12/16 10:01:11;;;;;;;19.05;11.00;;;;;;;;;;5032550;28;20017;-80
2023/12/16 10:03:37;;;;;;;15.20;9.63;;;;;;;;;;5032746;28;20059;-80
2023/12/16 10:06:03;;;;;;;18.63;9.57;;;;;;;;;;5030074;28;20029;-81
2023/12/16 10:08:28;;;;;;;14.80;9.02;;;;;;;;;;5029721;28;20394;-81
2023/12/16 10:11:00;;;;;;;17.58;10.18;;;;;;;;;;5030914;28;20026;-81
2023/12/16 10:13:29;;;;;;;18.02;9.55;;;;;;;;;;5036249;28;20036;-81
2023/12/16 10:15:55;;;;;;;20.42;10.07;;;;;;;;;;5034185;28;20037;-81
2023/12/16 10:18:20;;;;;;;17.40;10.43;;;;;;;;;;5028618;28;20064;-80
2023/12/16 10:20:45;;;;;;;18.63;11.18;;;;;;;;;;5031800;28;20266;-80
2023/12/16 10:23:12;;;;;;;23.33;10.53;;;;;;;;;;5031863;28;20029;-80
2023/12/16 10:25:38;;;;;;;15.65;10.10;;;;;;;;;;5030647;28;20270;-80
2023/12/16 10:28:03;;;;;;;19.73;11.13;;;;;;;;;;5030275;28;20452;-80
2023/12/16 10:30:29;;;;;;;20.67;10.03;;;;;;;;;;5030961;28;20025;-80
2023/12/16 10:32:55;;;;;;;22.33;10.70;;;;;;;;;;5030019;28;20355;-80
2023/12/16 10:35:23;;;;;;;16.48;10.52;;;;;;;;;;5029825;28;20109;-80
2023/12/16 10:37:51;;;;;;;15.65;9.60;;;;;;;;;;5025088;28;20018;-81
2023/12/16 10:40:17;;;;;;;21.75;10.23;;;;;;;;;;5037523;28;20025;-81
2023/12/16 10:42:42;;;;;;;13.88;8.32;;;;;;;;;;5030217;28;20024;-80
2023/12/16 10:45:08;;;;;;;17.45;8.93;;;;;;;;;;5030150;28;20040;-81
2023/12/16 10:47:34;;;;;;;13.85;7.50;;;;;;;;;;5030649;28;20034;-81
2023/12/16 10:50:00;;;;;;;13.65;8.35;;;;;;;;;;5030936;28;20036;-81
2023/12/16 10:52:27;;;;;;;15.60;7.95;;;;;;;;;;5032583;28;20021;-81
2023/12/16 10:55:00;;;;;;;16.15;8.75;;;;;;;;;;5034165;28;20382;-81
2023/12/16 10:57:25;;;;;;;18.70;9.23;;;;;;;;;;5032634;28;20018;-81
2023/12/16 11:00:11;;;;;;;14.73;7.37;;;;;;;;;;5034048;28;20104;-81
2023/12/16 11:02:37;;;;;;;10.93;7.28;;;;;;;;;;5031407;28;20033;-81
2023/12/16 11:05:07;;;;;;;15.18;7.45;;;;;;;;;;5033561;28;20076;-81
2023/12/16 11:07:35;;;;;;;14.50;7.15;;;;;;;;;;5033602;28;20021;-81
2023/12/16 11:10:00;;;;;;;11.88;6.90;;;;;;;;;;5027512;28;20017;-81
2023/12/16 11:12:25;;;;;;;11.13;7.00;;;;;;;;;;5027088;28;20434;-81
2023/12/16 11:14:54;;;;;;;13.82;5.07;;;;;;;;;;5045542;28;20397;-81
2023/12/16 11:17:41;;;;;;;11.57;5.13;;;;;;;;;;5028809;28;20379;-81
2023/12/16 11:20:06;;;;;;;10.07;5.10;;;;;;;;;;5035900;28;20440;-81
2023/12/16 11:22:31;;;;;;;11.18;4.70;;;;;;;;;;5045873;28;20049;-81
2023/12/16 11:24:57;;;;;;;11.90;4.90;;;;;;;;;;5033683;28;20473;-81
2023/12/16 11:27:23;;;;;;;9.20;4.53;;;;;;;;;;5033337;28;20500;-81
2023/12/16 11:29:48;;;;;;;9.13;4.60;;;;;;;;;;5032390;28;20029;-81
2023/12/16 11:32:13;;;;;;;8.90;3.70;;;;;;;;;;5031330;28;20266;-81
2023/12/16 11:34:38;;;;;;;7.10;3.53;;;;;;;;;;5040127;28;20029;-81
2023/12/16 11:37:04;;;;;;;7.10;3.53;;;;;;;;;;5032660;28;20033;-81
2023/12/16 11:39:38;;;;;;;9.43;4.17;;;;;;;;;;5032255;28;20267;-81
2023/12/16 11:42:04;;;;;;;7.03;4.03;;;;;;;;;;5033488;28;20761;-81
2023/12/16 11:45:02;;;;;;;8.68;4.05;;;;;;;;;;5032730;28;20017;-81
2023/12/16 11:47:27;;;;;;;8.73;3.50;;;;;;;;;;4990597;28;20360;-81
2023/12/16 11:49:53;;;;;;;7.85;3.47;;;;;;;;;;5031678;28;20101;-81
2023/12/16 11:52:22;;;;;;;9.63;2.83;;;;;;;;;;5031024;28;20041;-81
2023/12/16 11:54:51;;;;;;;10.55;3.38;;;;;;;;;;5031343;28;20025;-81
2023/12/16 11:57:26;;;;;;;8.65;3.10;;;;;;;;;;5032869;28;20025;-81
2023/12/16 11:59:52;;;;;;;8.63;3.30;;;;;;;;;;5032646;28;20013;-81
2023/12/16 12:02:18;;;;;;;10.75;3.38;;;;;;;;;;5031035;28;20021;-81
2023/12/16 12:04:44;;;;;;;8.77;3.58;;;;;;;;;;5026391;28;20065;-81
2023/12/16 12:07:09;;;;;;;7.07;3.20;;;;;;;;;;5031306;28;20128;-82
2023/12/16 12:09:34;;;;;;;8.85;3.05;;;;;;;;;;5032069;28;20312;-82
2023/12/16 12:12:03;;;;;;;11.63;3.40;;;;;;;;;;5031508;28;20112;-81
2023/12/16 12:14:28;;;;;;;7.95;3.30;;;;;;;;;;5032991;28;20259;-81
2023/12/16 12:16:53;;;;;;;19.48;4.38;;;;;;;;;;5031519;28;20500;-82
2023/12/16 12:19:19;;;;;;;8.38;2.95;;;;;;;;;;5031531;28;20025;-80
2023/12/16 12:21:44;;;;;;;7.73;3.23;;;;;;;;;;5023789;28;20025;-80
2023/12/16 12:24:09;;;;;;;6.70;2.80;;;;;;;;;;5031529;28;20638;-80
2023/12/16 12:26:34;;;;;;;6.63;2.40;;;;;;;;;;5030855;28;20266;-80
2023/12/16 12:29:02;;;;;;;6.27;2.43;;;;;;;;;;5031645;28;20266;-80
2023/12/16 12:31:27;;;;;;;8.65;2.50;;;;;;;;;;5030366;28;20278;-80
2023/12/16 12:33:53;;;;;;;9.18;2.42;;;;;;;;;;5032514;28;20433;-81
2023/12/16 12:36:18;;;;;;;5.90;2.70;;;;;;;;;;5031009;28;20026;-80
2023/12/16 12:38:53;;;;;;;7.47;3.55;;;;;;;;;;5031895;28;20104;-80
2023/12/16 12:41:18;;;;;;;5.45;2.90;;;;;;;;;;5032055;28;20470;-80
2023/12/16 12:43:44;;;;;;;8.32;3.03;;;;;;;;;;5030583;28;20075;-80
2023/12/16 12:46:10;;;;;;;8.60;2.93;;;;;;;;;;5023812;28;20048;-80
2023/12/16 12:48:36;;;;;;;8.18;2.55;;;;;;;;;;5032111;28;20324;-80
2023/12/16 12:51:08;;;;;;;8.90;2.85;;;;;;;;;;5031743;28;20036;-80
2023/12/16 12:53:35;;;;;;;14.18;2.95;;;;;;;;;;5030532;28;20020;-80
2023/12/16 12:56:00;;;;;;;7.50;2.33;;;;;;;;;;5038098;28;20489;-80
2023/12/16 12:58:25;;;;;;;11.52;2.85;;;;;;;;;;5031408;28;20025;-80
2023/12/16 13:00:59;;;;;;;6.88;2.47;;;;;;;;;;5032003;28;20163;-80
2023/12/16 13:03:25;;;;;;;4.53;2.20;;;;;;;;;;5033060;28;20397;-80
2023/12/16 13:05:50;;;;;;;10.80;3.10;;;;;;;;;;5032290;28;20079;-80
2023/12/16 13:08:15;;;;;;;6.40;2.60;;;;;;;;;;5032325;28;20029;-80
2023/12/16 13:10:41;;;;;;;5.82;2.92;;;;;;;;;;5029029;28;20017;-80
2023/12/16 13:13:06;;;;;;;13.55;2.95;;;;;;;;;;5028537;28;20022;-80
2023/12/16 13:15:31;;;;;;;9.63;2.13;;;;;;;;;;5028369;28;20034;-81
2023/12/16 13:17:56;;;;;;;4.63;1.77;;;;;;;;;;5021699;28;20018;-80
2023/12/16 13:20:22;;;;;;;8.50;2.30;;;;;;;;;;5028634;28;20270;-80
2023/12/16 13:22:47;;;;;;;7.93;2.40;;;;;;;;;;5030488;28;20026;-80
2023/12/16 13:25:13;;;;;;;5.93;1.90;;;;;;;;;;5023927;28;20279;-80
2023/12/16 13:27:40;;;;;;;9.23;1.85;;;;;;;;;;5023658;28;20270;-80
2023/12/16 13:30:06;;;;;;;10.18;2.22;;;;;;;;;;5025684;28;20079;-80
2023/12/16 13:32:31;;;;;;;6.70;1.90;;;;;;;;;;5030618;28;20033;-80
2023/12/16 13:34:56;;;;;;;6.25;2.53;;;;;;;;;;5028528;28;20075;-80
2023/12/16 13:37:22;;;;;;;7.32;2.33;;;;;;;;;;5029916;28;20029;-80
2023/12/16 13:39:47;;;;;;;6.63;2.20;;;;;;;;;;5026939;28;20017;-80
2023/12/16 13:42:12;;;;;;;9.17;2.37;;;;;;;;;;5029972;28;20354;-80
2023/12/16 13:44:38;;;;;;;12.57;2.53;;;;;;;;;;5027235;28;20346;-80
2023/12/16 13:47:03;;;;;;;10.68;2.83;;;;;;;;;;5030170;28;20017;-80
2023/12/16 13:49:28;;;;;;;4.05;2.03;;;;;;;;;;5028553;28;20384;-81
2023/12/16 13:51:53;;;;;;;9.80;2.53;;;;;;;;;;5029396;28;20025;-80
2023/12/16 13:54:19;;;;;;;6.45;2.42;;;;;;;;;;5030342;28;20277;-80
2023/12/16 13:56:44;;;;;;;10.97;2.77;;;;;;;;;;5028436;28;20378;-80
2023/12/16 13:59:09;;;;;;;7.93;2.33;;;;;;;;;;5027768;28;20273;-80
2023/12/16 14:01:34;;;;;;;4.90;2.20;;;;;;;;;;5030537;28;20017;-80
2023/12/16 14:04:00;;;;;;;6.28;2.53;;;;;;;;;;5018351;28;20499;-80
2023/12/16 14:06:25;;;;;;;10.30;2.45;;;;;;;;;;5029433;28;20037;-80
2023/12/16 14:08:50;;;;;;;11.50;2.60;;;;;;;;;;5028460;28;20021;-80
2023/12/16 14:11:15;;;;;;;8.23;2.42;;;;;;;;;;5026907;28;20266;-80
2023/12/16 14:13:41;;;;;;;10.75;2.60;;;;;;;;;;5029540;28;20021;-80
2023/12/16 14:16:06;;;;;;;6.63;2.53;;;;;;;;;;5013019;28;20033;-80